createdAt,value
2023-01-29T00:02:09.892Z,6.72
2023-01-29T00:04:36.837Z,6.65
2023-01-29T00:07:03.986Z,7.45
2023-01-29T00:09:31.856Z,6.85
2023-01-29T00:11:58.532Z,7.47
2023-01-29T00:14:27.555Z,5.85
2023-01-29T00:16:54.634Z,5.95
2023-01-29T00:19:21.407Z,5.10
2023-01-29T00:21:47.939Z,6.03
2023-01-29T00:24:15.062Z,6.25
2023-01-29T00:26:43.461Z,6.07
2023-01-29T00:29:11.046Z,5.50
2023-01-29T00:31:38.822Z,6.18
2023-01-29T00:34:07.030Z,6.47
2023-01-29T00:36:34.271Z,6.05
2023-01-29T00:39:02.738Z,6.57
2023-01-29T00:41:51.167Z,6.40
2023-01-29T00:44:37.351Z,6.50
2023-01-29T00:47:05.378Z,6.50
2023-01-29T00:49:32.165Z,6.95
2023-01-29T00:52:17.979Z,6.18
2023-01-29T00:54:44.855Z,6.13
2023-01-29T00:57:11.497Z,5.90
2023-01-29T00:59:38.467Z,5.75
2023-01-29T01:02:23.966Z,6.40
2023-01-29T01:04:51.135Z,6.53
2023-01-29T01:07:17.595Z,5.60
2023-01-29T01:10:03.000Z,6.65
2023-01-29T01:12:30.669Z,6.03
2023-01-29T01:14:57.641Z,7.00
2023-01-29T01:17:24.574Z,6.65
2023-01-29T01:19:51.592Z,6.00
2023-01-29T01:22:18.737Z,5.90
2023-01-29T01:24:45.421Z,6.95
2023-01-29T01:27:12.784Z,6.60
2023-01-29T01:29:39.401Z,7.00
2023-01-29T01:32:06.586Z,7.30
2023-01-29T01:34:33.389Z,7.15
2023-01-29T01:37:01.286Z,7.88
2023-01-29T01:39:27.832Z,7.22
2023-01-29T01:41:54.953Z,7.03
2023-01-29T01:44:54.219Z,6.75
2023-01-29T01:47:26.458Z,7.00
2023-01-29T01:49:55.241Z,6.63
2023-01-29T01:52:21.904Z,7.45
2023-01-29T01:55:12.190Z,6.38
2023-01-29T01:58:06.488Z,7.60
2023-01-29T02:00:53.994Z,6.95
2023-01-29T02:04:09.254Z,7.47
2023-01-29T02:07:16.542Z,8.02
2023-01-29T02:10:12.855Z,6.72
2023-01-29T02:12:40.375Z,7.28
2023-01-29T02:15:07.793Z,7.55
2023-01-29T02:17:34.662Z,7.85
2023-01-29T02:20:10.563Z,7.30
2023-01-29T02:22:47.109Z,7.07
2023-01-29T02:25:41.183Z,7.38
2023-01-29T02:28:55.240Z,8.63
2023-01-29T02:31:28.265Z,7.38
2023-01-29T02:34:01.262Z,7.25
2023-01-29T02:36:41.489Z,6.90
2023-01-29T02:39:34.095Z,7.72
2023-01-29T02:42:41.218Z,7.28
2023-01-29T02:45:18.797Z,7.13
2023-01-29T02:48:01.073Z,7.20
2023-01-29T02:50:51.272Z,7.47
2023-01-29T02:53:42.731Z,7.20
2023-01-29T02:56:21.612Z,6.82
2023-01-29T02:58:54.671Z,7.53
2023-01-29T03:01:31.607Z,7.57
2023-01-29T03:04:06.829Z,7.38
2023-01-29T03:06:38.802Z,6.93
2023-01-29T03:09:13.292Z,7.60
2023-01-29T03:11:47.021Z,6.45
2023-01-29T03:14:19.249Z,7.53
2023-01-29T03:16:50.782Z,8.00
2023-01-29T03:19:38.760Z,6.50
2023-01-29T03:22:16.505Z,7.75
2023-01-29T03:25:15.877Z,7.05
2023-01-29T03:28:21.111Z,6.60
2023-01-29T03:31:13.671Z,6.90
2023-01-29T03:33:50.951Z,7.32
2023-01-29T03:36:23.163Z,7.15
2023-01-29T03:38:49.824Z,6.57
2023-01-29T03:41:31.704Z,7.15
2023-01-29T03:44:30.406Z,7.93
2023-01-29T03:47:13.822Z,7.43
2023-01-29T03:49:43.710Z,7.72
2023-01-29T03:52:24.731Z,7.25
2023-01-29T03:55:16.646Z,7.22
2023-01-29T03:58:03.553Z,6.85
2023-01-29T04:00:40.957Z,6.00
2023-01-29T04:03:23.052Z,7.03
2023-01-29T04:06:10.205Z,7.10
2023-01-29T04:09:00.093Z,7.80
2023-01-29T04:11:29.715Z,7.80
2023-01-29T04:13:57.829Z,7.15
2023-01-29T04:16:32.215Z,7.47
2023-01-29T04:19:12.561Z,8.07
2023-01-29T04:21:42.174Z,8.70
2023-01-29T04:24:11.776Z,8.10
2023-01-29T04:27:16.127Z,8.55
2023-01-29T04:30:02.372Z,8.57
2023-01-29T04:33:05.430Z,8.15
2023-01-29T04:35:36.681Z,8.13
2023-01-29T04:38:16.723Z,7.45
2023-01-29T04:41:06.546Z,8.85
2023-01-29T04:43:53.193Z,8.57
2023-01-29T04:46:51.080Z,7.70
2023-01-29T04:49:46.194Z,9.23
2023-01-29T04:52:20.152Z,7.65
2023-01-29T04:54:53.449Z,8.10
2023-01-29T04:57:31.471Z,7.35
2023-01-29T05:00:10.368Z,7.97
2023-01-29T05:02:41.583Z,7.85
2023-01-29T05:05:10.869Z,7.40
2023-01-29T05:07:39.060Z,7.68
2023-01-29T05:10:08.325Z,8.00
2023-01-29T05:12:36.943Z,7.72
2023-01-29T05:15:08.207Z,7.50
2023-01-29T05:17:35.066Z,8.02
2023-01-29T05:20:01.560Z,8.18
2023-01-29T05:22:29.459Z,8.93
2023-01-29T05:24:56.135Z,8.77
2023-01-29T05:27:51.265Z,8.02
2023-01-29T05:30:18.180Z,7.45
2023-01-29T05:32:45.054Z,8.50
2023-01-29T05:35:12.048Z,8.18
2023-01-29T05:37:38.890Z,8.20
2023-01-29T05:40:09.120Z,8.38
2023-01-29T05:42:35.665Z,7.70
2023-01-29T05:45:02.902Z,7.25
2023-01-29T05:47:29.668Z,6.57
2023-01-29T05:49:56.263Z,7.63
2023-01-29T05:52:22.958Z,7.55
2023-01-29T05:54:49.933Z,7.03
2023-01-29T05:57:16.368Z,8.20
2023-01-29T05:59:43.061Z,7.30
2023-01-29T06:02:09.864Z,7.43
2023-01-29T06:04:36.699Z,7.97
2023-01-29T06:07:04.833Z,8.40
2023-01-29T06:09:31.505Z,8.80
2023-01-29T06:11:58.052Z,8.25
2023-01-29T06:14:25.038Z,8.40
2023-01-29T06:16:51.501Z,8.95
2023-01-29T06:19:18.222Z,7.70
2023-01-29T06:21:45.171Z,8.13
2023-01-29T06:24:11.741Z,9.07
2023-01-29T06:26:38.716Z,9.50
2023-01-29T06:29:05.189Z,7.90
2023-01-29T06:31:38.866Z,7.88
2023-01-29T06:34:08.407Z,8.23
2023-01-29T06:36:35.231Z,7.95
2023-01-29T06:39:01.895Z,7.72
2023-01-29T06:41:29.032Z,8.55
2023-01-29T06:43:55.620Z,7.75
2023-01-29T06:46:22.522Z,8.43
2023-01-29T06:48:49.245Z,8.32
2023-01-29T06:51:15.955Z,7.80
2023-01-29T06:53:45.426Z,8.75
2023-01-29T06:56:13.017Z,7.38
2023-01-29T06:58:39.570Z,7.78
2023-01-29T07:01:15.521Z,7.57
2023-01-29T07:03:52.399Z,7.97
2023-01-29T07:06:19.529Z,7.53
2023-01-29T07:08:46.516Z,8.23
2023-01-29T07:11:13.155Z,7.53
2023-01-29T07:13:40.200Z,7.70
2023-01-29T07:16:07.847Z,7.80
2023-01-29T07:18:34.517Z,8.07
2023-01-29T07:21:05.713Z,7.97
2023-01-29T07:23:32.682Z,8.77
2023-01-29T07:26:03.716Z,8.20
2023-01-29T07:28:30.431Z,8.00
2023-01-29T07:31:00.741Z,9.18
2023-01-29T07:33:27.335Z,8.30
2023-01-29T07:35:54.633Z,8.73
2023-01-29T07:38:24.696Z,11.48
2023-01-29T07:40:55.026Z,10.57
2023-01-29T07:43:21.503Z,8.95
2023-01-29T07:45:48.247Z,7.70
2023-01-29T07:48:14.704Z,8.63
2023-01-29T07:50:41.649Z,8.70
2023-01-29T07:53:15.327Z,7.60
2023-01-29T07:55:45.563Z,8.13
2023-01-29T07:58:12.662Z,8.48
2023-01-29T08:00:39.588Z,8.43
2023-01-29T08:03:13.317Z,9.00
2023-01-29T08:05:40.113Z,8.18
2023-01-29T08:08:07.899Z,9.40
2023-01-29T08:10:36.573Z,7.85
2023-01-29T08:13:04.847Z,9.13
2023-01-29T08:15:32.378Z,8.07
2023-01-29T08:17:59.265Z,8.77
2023-01-29T08:20:26.144Z,8.70
2023-01-29T08:23:08.339Z,8.32
2023-01-29T08:25:36.001Z,7.53
2023-01-29T08:28:04.132Z,8.18
2023-01-29T08:30:33.409Z,8.07
2023-01-29T08:33:00.627Z,7.70
2023-01-29T08:35:27.773Z,7.47
2023-01-29T08:37:56.437Z,7.65
2023-01-29T08:40:23.963Z,8.45
2023-01-29T08:42:50.512Z,7.40
2023-01-29T08:45:17.254Z,7.60
2023-01-29T08:47:49.988Z,6.93
2023-01-29T08:50:17.821Z,8.23
2023-01-29T08:52:45.746Z,6.95
2023-01-29T08:55:15.387Z,5.47
2023-01-29T08:57:42.374Z,6.05
2023-01-29T09:00:10.834Z,6.38
2023-01-29T09:02:37.802Z,6.72
2023-01-29T09:05:05.499Z,7.13
2023-01-29T09:07:32.509Z,7.32
2023-01-29T09:09:58.967Z,7.72
2023-01-29T09:12:25.795Z,4.90
2023-01-29T09:14:52.494Z,5.72
2023-01-29T09:17:19.377Z,4.97
2023-01-29T09:19:46.093Z,4.30
2023-01-29T09:22:14.146Z,4.50
2023-01-29T09:24:41.169Z,4.38
2023-01-29T09:27:07.775Z,4.05
2023-01-29T09:29:35.944Z,4.38
2023-01-29T09:32:04.277Z,4.53
2023-01-29T09:34:30.885Z,4.55
2023-01-29T09:36:57.622Z,4.78
2023-01-29T09:39:24.087Z,4.45
2023-01-29T09:42:05.962Z,4.95
2023-01-29T09:44:51.731Z,4.65
2023-01-29T09:47:19.882Z,5.32
2023-01-29T09:49:55.664Z,5.28
2023-01-29T09:52:31.092Z,5.05
2023-01-29T09:55:09.930Z,5.40
2023-01-29T09:57:53.471Z,5.93
2023-01-29T10:00:38.530Z,5.30
2023-01-29T10:03:21.083Z,5.22
2023-01-29T10:05:55.464Z,5.20
2023-01-29T10:08:49.199Z,4.95
2023-01-29T10:11:46.307Z,7.00
2023-01-29T10:14:53.850Z,8.43
2023-01-29T10:17:39.550Z,9.15
2023-01-29T10:20:33.334Z,11.10
2023-01-29T10:23:31.918Z,11.57
2023-01-29T10:26:00.185Z,15.30
2023-01-29T10:28:33.974Z,12.63
2023-01-29T10:31:15.246Z,11.00
2023-01-29T10:34:01.550Z,11.05
2023-01-29T10:36:36.091Z,10.85
2023-01-29T10:39:03.346Z,11.13
2023-01-29T10:41:56.865Z,10.05
2023-01-29T10:44:53.559Z,9.48
2023-01-29T10:47:42.194Z,9.98
2023-01-29T10:50:33.663Z,11.32
2023-01-29T10:53:08.447Z,11.05
2023-01-29T10:55:52.853Z,11.93
2023-01-29T10:58:36.504Z,11.85
2023-01-29T11:01:03.499Z,12.27
2023-01-29T11:03:32.524Z,12.00
2023-01-29T11:06:20.683Z,10.77
2023-01-29T11:08:59.234Z,10.77
2023-01-29T11:11:33.776Z,9.93
2023-01-29T11:14:07.019Z,10.30
2023-01-29T11:16:42.974Z,10.50
2023-01-29T11:19:10.606Z,9.63
2023-01-29T11:21:59.903Z,9.65
2023-01-29T11:24:27.337Z,10.18
2023-01-29T11:26:57.705Z,10.48
2023-01-29T11:29:29.911Z,13.32
2023-01-29T11:32:04.110Z,12.20
2023-01-29T11:34:33.556Z,12.20
2023-01-29T11:37:05.779Z,13.00
2023-01-29T11:39:32.882Z,12.52
2023-01-29T11:42:04.581Z,12.73
2023-01-29T11:44:33.955Z,11.93
2023-01-29T11:47:12.865Z,12.07
2023-01-29T11:49:45.009Z,12.73
2023-01-29T11:52:13.868Z,12.15
2023-01-29T11:55:03.778Z,11.55
2023-01-29T11:57:35.583Z,12.30
2023-01-29T12:00:07.138Z,12.50
2023-01-29T12:02:41.854Z,11.95
2023-01-29T12:05:18.589Z,11.43
2023-01-29T12:07:48.932Z,11.98
2023-01-29T12:13:21.254Z,11.82
2023-01-29T12:15:49.272Z,11.55
2023-01-29T12:18:38.091Z,12.32
2023-01-29T12:21:11.032Z,12.27
2023-01-29T12:24:15.704Z,12.30
2023-01-29T12:26:58.253Z,11.57
2023-01-29T12:29:43.008Z,13.63
2023-01-29T12:32:38.217Z,13.40
2023-01-29T12:35:23.019Z,13.18
2023-01-29T12:38:08.535Z,13.50
2023-01-29T12:40:43.115Z,13.73
2023-01-29T12:43:17.176Z,14.63
2023-01-29T12:45:48.052Z,13.63
2023-01-29T12:48:20.739Z,14.20
2023-01-29T12:50:50.137Z,14.13
2023-01-29T12:53:35.111Z,15.43
2023-01-29T12:56:11.113Z,13.68
2023-01-29T12:58:50.538Z,13.52
2023-01-29T13:01:27.243Z,13.90
2023-01-29T13:03:57.611Z,13.75
2023-01-29T13:06:31.748Z,13.52
2023-01-29T13:09:02.971Z,13.25
2023-01-29T13:11:37.493Z,13.10
2023-01-29T13:14:18.942Z,13.73
2023-01-29T13:16:49.702Z,12.73
2023-01-29T13:19:23.948Z,13.45
2023-01-29T13:21:52.459Z,14.35
2023-01-29T13:24:23.527Z,14.18
2023-01-29T13:26:50.865Z,12.55
2023-01-29T13:29:27.543Z,13.13
2023-01-29T13:32:00.632Z,13.88
2023-01-29T13:34:31.443Z,13.00
2023-01-29T13:37:01.919Z,12.07
2023-01-29T13:39:37.565Z,13.85
2023-01-29T13:42:18.995Z,13.20
2023-01-29T13:44:51.387Z,12.30
2023-01-29T13:47:27.155Z,12.38
2023-01-29T13:49:59.731Z,13.23
2023-01-29T13:52:36.292Z,13.57
2023-01-29T13:55:31.226Z,13.18
2023-01-29T13:58:02.835Z,12.88
2023-01-29T14:00:35.405Z,13.20
2023-01-29T14:03:05.157Z,13.48
2023-01-29T14:05:31.841Z,13.10
2023-01-29T14:08:28.089Z,13.50
2023-01-29T14:11:21.666Z,12.90
2023-01-29T14:13:49.989Z,12.95
2023-01-29T14:16:16.483Z,13.82
2023-01-29T14:18:58.093Z,12.65
2023-01-29T14:21:36.994Z,13.82
2023-01-29T14:24:17.032Z,13.40
2023-01-29T14:26:45.956Z,13.50
2023-01-29T14:29:14.524Z,13.02
2023-01-29T14:34:33.025Z,12.75
2023-01-29T14:37:19.524Z,12.55
2023-01-29T14:39:52.432Z,13.57
2023-01-29T14:42:25.989Z,12.73
2023-01-29T14:44:55.519Z,13.43
2023-01-29T14:47:43.480Z,12.27
2023-01-29T14:50:33.256Z,12.95
2023-01-29T14:53:19.565Z,11.90
2023-01-29T14:56:01.177Z,12.05
2023-01-29T14:58:56.268Z,11.65
2023-01-29T15:01:34.456Z,10.77
2023-01-29T15:04:12.192Z,11.48
2023-01-29T15:06:46.541Z,11.00
2023-01-29T15:09:40.922Z,11.73
2023-01-29T15:12:33.302Z,10.90
2023-01-29T15:15:15.667Z,11.77
2023-01-29T15:18:03.483Z,10.95
2023-01-29T15:20:44.493Z,11.35
2023-01-29T15:23:34.071Z,11.35
2023-01-29T15:26:03.226Z,10.63
2023-01-29T15:28:34.531Z,11.05
2023-01-29T15:31:07.843Z,11.68
2023-01-29T15:33:38.741Z,11.63
2023-01-29T15:38:35.798Z,11.20
2023-01-29T15:41:16.293Z,12.35
2023-01-29T15:43:56.657Z,12.63
2023-01-29T15:49:31.964Z,13.48
2023-01-29T15:52:02.013Z,11.65
2023-01-29T15:54:31.989Z,11.88
2023-01-29T15:56:59.302Z,11.68
2023-01-29T15:59:30.656Z,12.23
2023-01-29T16:01:58.161Z,12.73
2023-01-29T16:04:28.944Z,13.48
2023-01-29T16:06:57.993Z,13.35
2023-01-29T16:09:27.411Z,13.80
2023-01-29T16:11:58.492Z,13.18
2023-01-29T16:14:26.679Z,13.50
2023-01-29T16:16:53.767Z,13.00
2023-01-29T16:19:20.233Z,13.20
2023-01-29T16:21:54.672Z,14.40
2023-01-29T16:24:23.310Z,14.65
2023-01-29T16:26:52.245Z,15.13
2023-01-29T16:29:22.455Z,14.48
2023-01-29T16:34:29.007Z,16.00
2023-01-29T16:36:56.372Z,14.93
2023-01-29T16:39:25.499Z,14.13
2023-01-29T16:42:17.052Z,15.05
2023-01-29T16:45:06.503Z,14.38
2023-01-29T16:47:38.292Z,14.00
2023-01-29T16:50:36.050Z,14.00
2023-01-29T16:53:13.412Z,15.05
2023-01-29T16:55:45.464Z,13.88
2023-01-29T16:58:18.172Z,15.30
2023-01-29T17:01:07.951Z,13.68
2023-01-29T17:03:36.461Z,14.48
2023-01-29T17:06:19.131Z,14.77
2023-01-29T17:08:46.143Z,14.75
2023-01-29T17:11:22.766Z,15.50
2023-01-29T17:13:49.352Z,15.40
2023-01-29T17:16:25.954Z,15.20
2023-01-29T17:18:52.690Z,14.90
2023-01-29T17:21:19.132Z,13.95
2023-01-29T17:23:45.759Z,15.38
2023-01-29T17:26:14.544Z,16.13
2023-01-29T17:28:42.427Z,16.15
2023-01-29T17:31:09.206Z,22.23
2023-01-29T17:33:40.381Z,21.05
2023-01-29T17:36:12.180Z,18.10
2023-01-29T17:38:39.756Z,22.45
2023-01-29T17:41:09.145Z,19.25
2023-01-29T17:43:35.683Z,16.60
2023-01-29T17:46:02.322Z,16.70
2023-01-29T17:48:30.208Z,15.60
2023-01-29T17:51:00.834Z,14.10
2023-01-29T17:53:43.291Z,14.80
2023-01-29T17:56:16.944Z,15.18
2023-01-29T17:58:43.926Z,15.07
2023-01-29T18:01:10.738Z,17.30
2023-01-29T18:03:37.629Z,17.00
2023-01-29T18:06:08.208Z,15.90
2023-01-29T18:11:02.736Z,16.40
2023-01-29T18:13:29.721Z,16.33
2023-01-29T18:15:56.270Z,16.67
2023-01-29T18:18:24.253Z,16.40
2023-01-29T18:20:51.144Z,16.25
2023-01-29T18:23:17.795Z,17.42
2023-01-29T18:25:44.779Z,17.27
2023-01-29T18:28:17.796Z,17.25
2023-01-29T18:30:47.244Z,17.50
2023-01-29T18:33:14.648Z,20.02
2023-01-29T18:35:41.476Z,18.35
2023-01-29T18:38:08.000Z,20.88
2023-01-29T18:40:34.599Z,20.40
2023-01-29T18:43:01.164Z,20.48
2023-01-29T18:45:28.778Z,18.38
2023-01-29T18:47:56.176Z,17.42
2023-01-29T18:50:24.838Z,16.63
2023-01-29T18:52:51.471Z,16.35
2023-01-29T18:55:18.205Z,15.63
2023-01-29T18:58:29.054Z,14.80
2023-01-29T19:00:31.477Z,14.95
2023-01-29T19:02:57.972Z,14.02
2023-01-29T19:05:25.571Z,13.98
2023-01-29T19:07:52.361Z,14.55
2023-01-29T19:10:19.070Z,14.05
2023-01-29T19:12:45.671Z,14.07
2023-01-29T19:15:12.338Z,15.68
2023-01-29T19:17:39.249Z,14.93
2023-01-29T19:20:06.361Z,16.38
2023-01-29T19:22:32.971Z,14.35
2023-01-29T19:24:59.470Z,14.60
2023-01-29T19:27:30.229Z,14.48
2023-01-29T19:32:24.408Z,14.20
2023-01-29T19:34:51.628Z,14.50
2023-01-29T19:37:18.065Z,15.10
2023-01-29T19:39:44.683Z,13.73
2023-01-29T19:42:11.371Z,14.25
2023-01-29T19:44:39.737Z,14.70
2023-01-29T19:47:07.419Z,13.93
2023-01-29T19:49:34.193Z,14.55
2023-01-29T19:52:02.230Z,14.38
2023-01-29T19:54:29.537Z,14.00
2023-01-29T19:56:56.490Z,14.60
2023-01-29T19:59:22.944Z,14.05
2023-01-29T20:01:50.173Z,14.77
2023-01-29T20:04:16.756Z,14.30
2023-01-29T20:06:43.266Z,15.02
2023-01-29T20:09:09.986Z,15.93
2023-01-29T20:11:36.785Z,15.75
2023-01-29T20:14:03.476Z,15.75
2023-01-29T20:16:30.203Z,15.00
2023-01-29T20:19:13.189Z,15.65
2023-01-29T20:21:45.367Z,15.30
2023-01-29T20:24:13.484Z,14.95
2023-01-29T20:26:40.299Z,14.27
2023-01-29T20:29:07.454Z,14.63
2023-01-29T20:31:34.148Z,14.75
2023-01-29T20:34:00.608Z,16.13
2023-01-29T20:36:27.214Z,16.30
2023-01-29T20:38:53.732Z,15.48
2023-01-29T20:41:22.310Z,15.30
2023-01-29T20:43:50.741Z,15.00
2023-01-29T20:46:18.532Z,14.93
2023-01-29T20:48:45.200Z,15.55
2023-01-29T20:51:15.398Z,13.50
2023-01-29T20:56:14.600Z,14.95
2023-01-29T20:58:41.883Z,14.27
2023-01-29T21:01:10.635Z,14.52
2023-01-29T21:03:39.093Z,16.40
2023-01-29T21:06:06.534Z,14.98
2023-01-29T21:08:33.457Z,15.98
2023-01-29T21:11:00.381Z,14.13
2023-01-29T21:13:27.532Z,15.55
2023-01-29T21:15:54.332Z,16.17
2023-01-29T21:18:21.203Z,15.30
2023-01-29T21:20:50.724Z,15.40
2023-01-29T21:23:17.478Z,15.43
2023-01-29T21:25:45.726Z,15.82
2023-01-29T21:28:16.019Z,14.82
2023-01-29T21:30:50.318Z,17.05
2023-01-29T21:33:17.490Z,14.68
2023-01-29T21:35:44.203Z,13.90
2023-01-29T21:38:10.734Z,14.82
2023-01-29T21:40:37.676Z,14.02
2023-01-29T21:43:13.226Z,15.65
2023-01-29T21:45:40.931Z,14.75
2023-01-29T21:48:09.385Z,14.82
2023-01-29T21:50:36.941Z,16.50
2023-01-29T21:53:06.758Z,14.32
2023-01-29T21:55:33.441Z,14.68
2023-01-29T21:58:00.714Z,14.25
2023-01-29T22:00:28.307Z,15.07
2023-01-29T22:02:58.574Z,14.68
2023-01-29T22:07:53.225Z,14.80
2023-01-29T22:10:20.696Z,15.80
2023-01-29T22:12:48.616Z,15.23
2023-01-29T22:15:15.974Z,15.88
2023-01-29T22:17:42.523Z,14.45
2023-01-29T22:20:13.689Z,15.88
2023-01-29T22:22:40.335Z,14.52
2023-01-29T22:25:07.664Z,14.95
2023-01-29T22:27:34.627Z,14.52
2023-01-29T22:30:01.326Z,15.75
2023-01-29T22:32:28.191Z,13.95
2023-01-29T22:34:54.805Z,15.05
2023-01-29T22:37:21.971Z,14.88
2023-01-29T22:39:48.702Z,14.82
2023-01-29T22:42:15.728Z,16.85
2023-01-29T22:44:42.900Z,16.15
2023-01-29T22:47:09.462Z,15.77
2023-01-29T22:49:36.307Z,14.00
2023-01-29T22:52:11.922Z,13.80
2023-01-29T22:54:40.652Z,15.18
2023-01-29T22:57:10.336Z,15.00
2023-01-29T22:59:37.186Z,15.50
2023-01-29T23:02:04.220Z,15.27
2023-01-29T23:04:30.855Z,15.10
2023-01-29T23:06:57.347Z,15.05
2023-01-29T23:09:24.265Z,14.63
2023-01-29T23:11:50.984Z,17.17
2023-01-29T23:14:17.682Z,16.00
2023-01-29T23:16:44.396Z,15.98
2023-01-29T23:19:11.945Z,16.48
2023-01-29T23:21:39.816Z,15.52
2023-01-29T23:24:08.016Z,15.10
2023-01-29T23:26:53.459Z,14.82
2023-01-29T23:29:20.467Z,16.92
2023-01-29T23:31:47.020Z,15.77
2023-01-29T23:34:14.354Z,16.10
2023-01-29T23:36:41.691Z,17.35
2023-01-29T23:39:08.413Z,15.43
2023-01-29T23:41:35.272Z,16.33
2023-01-29T23:44:02.365Z,16.33
2023-01-29T23:46:29.211Z,17.02
2023-01-29T23:48:55.873Z,17.40
2023-01-29T23:51:22.618Z,16.33
2023-01-29T23:53:51.751Z,15.68
2023-01-29T23:56:18.225Z,16.45
2023-01-29T23:58:44.975Z,17.00
